createdAt,value
2017-05-11T00:02:10.507Z,8.75
2017-05-11T00:04:37.474Z,8.74
2017-05-11T00:07:04.458Z,8.72
2017-05-11T00:09:31.443Z,8.71
2017-05-11T00:11:58.394Z,8.70
2017-05-11T00:14:25.374Z,8.68
2017-05-11T00:16:52.329Z,8.68
2017-05-11T00:19:19.317Z,8.66
2017-05-11T00:21:46.379Z,8.65
2017-05-11T00:24:13.377Z,8.64
2017-05-11T00:26:40.386Z,8.63
2017-05-11T00:29:07.361Z,8.62
2017-05-11T00:31:34.367Z,8.60
2017-05-11T00:34:01.347Z,8.59
2017-05-11T00:36:28.299Z,8.57
2017-05-11T00:38:55.302Z,8.56
2017-05-11T00:41:22.277Z,8.55
2017-05-11T00:43:49.283Z,8.52
2017-05-11T00:46:16.254Z,8.52
2017-05-11T00:48:43.222Z,8.50
2017-05-11T00:51:10.227Z,8.49
2017-05-11T00:53:37.188Z,8.47
2017-05-11T00:56:04.178Z,8.46
2017-05-11T00:58:31.153Z,8.44
2017-05-11T01:00:58.110Z,8.44
2017-05-11T01:03:25.102Z,8.42
2017-05-11T01:05:52.101Z,8.41
2017-05-11T01:08:19.143Z,8.40
2017-05-11T01:10:46.111Z,8.40
2017-05-11T01:13:13.074Z,8.39
2017-05-11T01:15:40.077Z,8.37
2017-05-11T01:18:07.037Z,8.36
2017-05-11T01:20:34.017Z,8.35
2017-05-11T01:23:00.994Z,8.33
2017-05-11T01:25:27.949Z,8.36
2017-05-11T01:27:54.911Z,8.41
2017-05-11T01:30:21.862Z,8.45
2017-05-11T01:32:48.833Z,8.49
2017-05-11T01:35:15.789Z,8.54
2017-05-11T01:37:42.762Z,8.58
2017-05-11T01:40:09.731Z,8.61
2017-05-11T01:42:36.697Z,8.64
2017-05-11T01:45:03.661Z,8.67
2017-05-11T01:47:30.621Z,8.70
2017-05-11T01:49:57.598Z,8.72
2017-05-11T01:52:24.569Z,8.73
2017-05-11T01:54:51.525Z,8.75
2017-05-11T01:57:18.497Z,8.75
2017-05-11T01:59:45.459Z,8.76
2017-05-11T02:02:12.405Z,8.75
2017-05-11T02:04:39.379Z,8.75
2017-05-11T02:07:06.349Z,8.76
2017-05-11T02:09:33.325Z,8.74
2017-05-11T02:12:00.283Z,8.74
2017-05-11T02:14:27.246Z,8.73
2017-05-11T02:16:54.240Z,8.71
2017-05-11T02:19:21.198Z,8.71
2017-05-11T02:21:48.176Z,8.70
2017-05-11T02:24:15.149Z,8.69
2017-05-11T02:26:42.130Z,8.67
2017-05-11T02:29:09.086Z,8.65
2017-05-11T02:31:36.065Z,8.63
2017-05-11T02:34:03.012Z,8.61
2017-05-11T02:36:29.990Z,8.60
2017-05-11T02:38:56.966Z,8.58
2017-05-11T02:41:23.933Z,8.56
2017-05-11T02:43:50.914Z,8.53
2017-05-11T02:46:17.860Z,8.51
2017-05-11T02:48:44.809Z,8.49
2017-05-11T02:51:11.776Z,8.47
2017-05-11T02:53:38.744Z,8.46
2017-05-11T02:56:05.725Z,8.44
2017-05-11T02:58:32.689Z,8.43
2017-05-11T03:00:59.646Z,8.43
2017-05-11T03:03:26.602Z,8.42
2017-05-11T03:05:53.545Z,8.42
2017-05-11T03:08:20.512Z,8.41
2017-05-11T03:10:47.485Z,8.41
2017-05-11T03:13:14.429Z,8.39
2017-05-11T03:15:41.405Z,8.37
2017-05-11T03:18:08.354Z,8.35
2017-05-11T03:20:35.334Z,8.33
2017-05-11T03:23:02.300Z,8.31
2017-05-11T03:25:29.253Z,8.29
2017-05-11T03:27:56.234Z,8.27
2017-05-11T03:30:23.186Z,8.26
2017-05-11T03:32:50.198Z,8.24
2017-05-11T03:35:17.173Z,8.23
2017-05-11T03:37:44.163Z,8.21
2017-05-11T03:40:11.137Z,8.19
2017-05-11T03:42:38.102Z,8.18
2017-05-11T03:45:05.086Z,8.16
2017-05-11T03:47:32.037Z,8.14
2017-05-11T03:49:58.990Z,8.15
2017-05-11T03:52:25.959Z,8.14
2017-05-11T03:54:52.942Z,8.15
2017-05-11T03:57:19.953Z,8.18
2017-05-11T03:59:46.938Z,8.19
2017-05-11T04:02:13.908Z,8.20
2017-05-11T04:04:40.893Z,8.22
2017-05-11T04:07:07.878Z,8.24
2017-05-11T04:09:34.853Z,8.26
2017-05-11T04:12:01.806Z,8.27
2017-05-11T04:14:28.762Z,8.29
2017-05-11T04:16:55.720Z,8.31
2017-05-11T04:19:22.673Z,8.34
2017-05-11T04:21:49.670Z,8.38
2017-05-11T04:24:16.649Z,8.41
2017-05-11T04:26:43.613Z,8.44
2017-05-11T04:29:10.580Z,8.46
2017-05-11T04:31:37.585Z,8.49
2017-05-11T04:34:04.625Z,8.52
2017-05-11T04:36:31.644Z,8.55
2017-05-11T04:38:58.634Z,8.56
2017-05-11T04:41:25.725Z,8.59
2017-05-11T04:43:52.702Z,8.62
2017-05-11T04:46:19.682Z,8.64
2017-05-11T04:48:46.626Z,8.67
2017-05-11T04:51:13.569Z,8.69
2017-05-11T04:53:40.545Z,8.73
2017-05-11T04:56:07.500Z,8.77
2017-05-11T04:58:34.606Z,8.83
2017-05-11T05:01:08.177Z,8.91
2017-05-11T05:03:35.143Z,9.01
2017-05-11T05:06:02.133Z,9.11
2017-05-11T05:08:29.084Z,9.22
2017-05-11T05:10:56.084Z,9.32
2017-05-11T05:13:23.037Z,9.42
2017-05-11T05:15:50.006Z,9.50
2017-05-11T05:18:16.952Z,9.57
2017-05-11T05:20:43.893Z,9.64
2017-05-11T05:23:10.852Z,9.72
2017-05-11T05:25:37.797Z,9.75
2017-05-11T05:28:04.773Z,9.82
2017-05-11T05:30:31.734Z,9.88
2017-05-11T05:32:58.685Z,9.97
2017-05-11T05:35:25.661Z,10.08
2017-05-11T05:37:52.613Z,10.19
2017-05-11T05:40:19.587Z,10.27
2017-05-11T05:42:46.556Z,10.33
2017-05-11T05:45:17.986Z,10.40
2017-05-11T05:47:44.954Z,10.46
2017-05-11T05:50:11.933Z,10.51
2017-05-11T05:52:38.952Z,10.56
2017-05-11T05:55:05.906Z,10.60
2017-05-11T05:57:32.850Z,10.65
2017-05-11T05:59:59.837Z,10.69
2017-05-11T06:02:26.829Z,10.73
2017-05-11T06:04:53.885Z,10.77
2017-05-11T06:07:20.851Z,10.82
2017-05-11T06:09:47.818Z,10.89
2017-05-11T06:12:14.807Z,10.94
2017-05-11T06:14:41.836Z,11.01
2017-05-11T06:17:08.831Z,11.08
2017-05-11T06:19:35.822Z,11.16
2017-05-11T06:22:02.793Z,11.23
2017-05-11T06:24:29.800Z,11.32
2017-05-11T06:26:57.134Z,11.42
2017-05-11T06:29:24.098Z,11.51
2017-05-11T06:31:52.225Z,11.61
2017-05-11T06:34:19.210Z,11.72
2017-05-11T06:36:46.197Z,11.83
2017-05-11T06:39:13.157Z,11.94
2017-05-11T06:41:40.219Z,12.08
2017-05-11T06:44:07.181Z,12.21
2017-05-11T06:46:34.133Z,12.34
2017-05-11T06:49:01.110Z,12.48
2017-05-11T06:51:28.062Z,12.60
2017-05-11T06:53:55.033Z,12.72
2017-05-11T06:56:22.993Z,12.84
2017-05-11T06:59:05.725Z,12.96
2017-05-11T07:01:32.681Z,13.05
2017-05-11T07:03:59.630Z,13.14
2017-05-11T07:06:26.605Z,13.21
2017-05-11T07:08:53.562Z,13.27
2017-05-11T07:11:30.529Z,13.33
2017-05-11T07:13:57.489Z,13.38
2017-05-11T07:16:24.469Z,13.44
2017-05-11T07:18:51.433Z,13.49
2017-05-11T07:21:18.381Z,13.55
2017-05-11T07:23:45.361Z,13.61
2017-05-11T07:26:12.323Z,13.68
2017-05-11T07:28:39.290Z,13.75
2017-05-11T07:31:06.254Z,13.83
2017-05-11T07:33:33.210Z,13.91
2017-05-11T07:36:00.174Z,13.99
2017-05-11T07:38:27.144Z,14.07
2017-05-11T07:40:54.093Z,14.17
2017-05-11T07:43:21.037Z,14.27
2017-05-11T07:45:47.993Z,14.38
2017-05-11T07:48:19.265Z,14.50
2017-05-11T07:50:46.214Z,14.62
2017-05-11T07:53:13.177Z,14.74
2017-05-11T07:55:40.121Z,14.87
2017-05-11T07:58:07.089Z,15.00
2017-05-11T08:00:34.035Z,15.13
2017-05-11T08:03:06.166Z,15.27
2017-05-11T08:05:33.134Z,15.40
2017-05-11T08:08:00.086Z,15.52
2017-05-11T08:10:27.062Z,15.61
2017-05-11T08:12:54.015Z,15.71
2017-05-11T08:15:20.959Z,15.82
2017-05-11T08:17:47.936Z,15.90
2017-05-11T08:20:14.898Z,15.99
2017-05-11T08:22:41.877Z,16.09
2017-05-11T08:25:08.830Z,16.16
2017-05-11T08:27:35.801Z,16.21
2017-05-11T08:30:02.766Z,16.27
2017-05-11T08:32:29.708Z,16.31
2017-05-11T08:34:56.677Z,16.35
2017-05-11T08:37:23.621Z,16.40
2017-05-11T08:39:50.562Z,16.45
2017-05-11T08:42:17.517Z,16.51
2017-05-11T08:44:44.465Z,16.57
2017-05-11T08:47:11.422Z,16.63
2017-05-11T08:49:38.389Z,16.68
2017-05-11T08:52:05.353Z,16.73
2017-05-11T08:54:32.329Z,16.77
2017-05-11T08:56:59.289Z,16.79
2017-05-11T08:59:26.282Z,16.81
2017-05-11T09:01:53.242Z,16.83
2017-05-11T09:04:20.213Z,16.83
2017-05-11T09:06:47.185Z,16.85
2017-05-11T09:09:14.150Z,16.88
2017-05-11T09:11:41.122Z,16.91
2017-05-11T09:14:08.084Z,16.97
2017-05-11T09:16:35.042Z,17.05
2017-05-11T09:19:02.011Z,17.17
2017-05-11T09:21:28.964Z,17.31
2017-05-11T09:23:55.941Z,17.50
2017-05-11T09:26:22.885Z,17.75
2017-05-11T09:28:49.841Z,18.00
2017-05-11T09:31:16.814Z,18.26
2017-05-11T09:33:43.766Z,18.50
2017-05-11T09:36:10.720Z,18.70
2017-05-11T09:38:37.666Z,18.84
2017-05-11T09:41:04.613Z,18.98
2017-05-11T09:43:31.581Z,19.11
2017-05-11T09:45:58.526Z,19.21
2017-05-11T09:48:25.485Z,19.32
2017-05-11T09:50:52.429Z,19.44
2017-05-11T09:53:19.371Z,19.56
2017-05-11T09:55:46.345Z,19.70
2017-05-11T09:58:13.289Z,19.89
2017-05-11T10:00:40.268Z,20.14
2017-05-11T10:03:07.205Z,20.41
2017-05-11T10:05:34.149Z,20.66
2017-05-11T10:08:01.112Z,20.88
2017-05-11T10:10:28.058Z,21.07
2017-05-11T10:12:55.033Z,21.25
2017-05-11T10:15:21.977Z,21.41
2017-05-11T10:17:48.917Z,21.60
2017-05-11T10:20:15.889Z,21.77
2017-05-11T10:22:42.833Z,21.96
2017-05-11T10:25:09.785Z,22.09
2017-05-11T10:27:36.736Z,22.19
2017-05-11T10:30:03.680Z,22.25
2017-05-11T10:32:30.640Z,22.26
2017-05-11T10:34:57.600Z,22.23
2017-05-11T10:37:24.566Z,22.20
2017-05-11T10:39:51.509Z,22.18
2017-05-11T10:42:18.466Z,22.24
2017-05-11T10:44:45.425Z,22.29
2017-05-11T10:47:12.364Z,22.30
2017-05-11T10:49:39.322Z,22.31
2017-05-11T10:52:06.269Z,22.32
2017-05-11T10:54:33.213Z,22.33
2017-05-11T10:57:00.177Z,22.35
2017-05-11T10:59:27.131Z,22.36
2017-05-11T11:01:54.097Z,22.37
2017-05-11T11:04:21.037Z,22.37
2017-05-11T11:06:47.987Z,22.41
2017-05-11T11:09:14.945Z,22.47
2017-05-11T11:11:41.905Z,22.52
2017-05-11T11:14:08.872Z,22.56
2017-05-11T11:16:35.815Z,22.57
2017-05-11T11:19:02.904Z,22.57
2017-05-11T11:21:29.867Z,22.60
2017-05-11T11:23:56.826Z,22.63
2017-05-11T11:26:23.798Z,22.72
2017-05-11T11:28:50.749Z,22.85
2017-05-11T11:31:17.698Z,22.97
2017-05-11T11:33:44.673Z,23.08
2017-05-11T11:36:11.617Z,23.16
2017-05-11T11:38:38.590Z,23.22
2017-05-11T11:41:05.534Z,23.27
2017-05-11T11:43:32.481Z,23.31
2017-05-11T11:45:59.440Z,23.38
2017-05-11T11:48:26.388Z,23.47
2017-05-11T11:50:53.325Z,23.57
2017-05-11T11:53:20.290Z,23.64
2017-05-11T11:55:49.151Z,23.69
2017-05-11T11:58:16.097Z,23.75
2017-05-11T12:00:43.221Z,23.83
2017-05-11T12:03:10.205Z,23.91
2017-05-11T12:05:49.530Z,23.98
2017-05-11T12:08:16.485Z,24.07
2017-05-11T12:10:43.450Z,24.15
2017-05-11T12:13:10.392Z,24.18
2017-05-11T12:15:37.345Z,24.25
2017-05-11T12:18:04.322Z,24.31
2017-05-11T12:20:31.271Z,24.34
2017-05-11T12:22:58.225Z,24.32
2017-05-11T12:25:25.197Z,24.27
2017-05-11T12:27:52.153Z,24.25
2017-05-11T12:30:19.100Z,24.22
2017-05-11T12:32:46.060Z,24.21
2017-05-11T12:35:13.021Z,24.18
2017-05-11T12:37:39.993Z,24.15
2017-05-11T12:40:06.954Z,24.07
2017-05-11T12:42:33.900Z,23.99
2017-05-11T12:45:00.877Z,23.91
2017-05-11T12:47:27.832Z,23.81
2017-05-11T12:49:54.834Z,23.71
2017-05-11T12:52:21.785Z,23.62
2017-05-11T12:54:48.738Z,23.55
2017-05-11T12:57:15.730Z,23.47
2017-05-11T12:59:42.677Z,23.42
2017-05-11T13:02:09.654Z,23.37
2017-05-11T13:04:36.618Z,23.33
2017-05-11T13:07:09.259Z,23.29
2017-05-11T13:09:36.481Z,23.25
2017-05-11T13:12:03.452Z,23.20
2017-05-11T13:14:30.420Z,23.15
2017-05-11T13:16:57.386Z,23.12
2017-05-11T13:19:24.361Z,23.11
2017-05-11T13:21:51.309Z,23.11
2017-05-11T13:24:18.253Z,23.13
2017-05-11T13:26:45.236Z,23.17
2017-05-11T13:29:12.198Z,23.20
2017-05-11T13:31:39.194Z,23.24
2017-05-11T13:34:06.145Z,23.27
2017-05-11T13:36:45.996Z,23.32
2017-05-11T13:39:25.232Z,23.44
2017-05-11T13:44:37.678Z,23.85
2017-05-11T13:47:04.666Z,24.01
2017-05-11T13:49:31.634Z,24.16
2017-05-11T13:51:58.581Z,24.29
2017-05-11T13:54:25.541Z,24.40
2017-05-11T13:56:52.489Z,24.52
2017-05-11T13:59:19.450Z,24.64
2017-05-11T14:01:46.402Z,24.75
2017-05-11T14:04:13.354Z,24.88
2017-05-11T14:06:40.324Z,25.00
2017-05-11T14:09:07.269Z,25.07
2017-05-11T14:11:34.250Z,25.10
2017-05-11T14:14:01.193Z,25.09
2017-05-11T14:16:28.157Z,25.09
2017-05-11T14:18:55.117Z,25.08
2017-05-11T14:21:22.061Z,25.08
2017-05-11T14:23:49.021Z,25.05
2017-05-11T14:26:15.993Z,25.05
2017-05-11T14:28:43.059Z,25.05
2017-05-11T14:31:10.012Z,25.05
2017-05-11T14:33:36.953Z,25.05
2017-05-11T14:36:03.930Z,25.07
2017-05-11T14:38:30.877Z,25.10
2017-05-11T14:40:57.821Z,25.12
2017-05-11T14:43:24.777Z,25.15
2017-05-11T14:45:51.714Z,25.19
2017-05-11T14:48:18.678Z,25.25
2017-05-11T14:50:45.617Z,25.31
2017-05-11T14:53:12.554Z,25.36
2017-05-11T14:55:52.190Z,25.40
2017-05-11T14:58:19.133Z,25.47
2017-05-11T15:02:56.568Z,25.50
2017-05-11T15:05:24.045Z,25.48
2017-05-11T15:07:51.575Z,25.41
2017-05-11T15:10:19.634Z,25.35
2017-05-11T15:15:35.921Z,25.24
2017-05-11T15:18:15.774Z,25.18
2017-05-11T15:35:13.476Z,24.88
2017-05-11T15:38:01.411Z,24.85
2017-05-11T15:46:41.472Z,24.80
2017-05-11T15:49:31.712Z,24.81
2017-05-11T16:00:38.160Z,24.77
2017-05-11T16:03:22.388Z,24.76
2017-05-11T16:05:49.990Z,24.75
2017-05-11T16:11:09.035Z,24.72
2017-05-11T16:13:56.785Z,24.69
2017-05-11T16:16:40.426Z,24.63
2017-05-11T16:19:21.829Z,24.60
2017-05-11T16:53:35.006Z,24.10
2017-05-11T17:48:35.116Z,22.47
2017-05-11T17:54:01.645Z,22.06
2017-05-11T17:59:24.644Z,21.74
2017-05-11T18:10:27.555Z,21.08
2017-05-11T18:16:24.991Z,20.69
2017-05-11T18:19:01.499Z,20.48
2017-05-11T18:33:06.958Z,19.72
2017-05-11T18:35:39.137Z,19.59
2017-05-11T18:38:16.409Z,19.49
2017-05-11T18:43:45.277Z,19.29
2017-05-11T19:03:59.746Z,18.69
2017-05-11T19:06:32.431Z,18.62
